sensor_id;sensor_type;location;lat;lon;timestamp;P1;durP1;ratioP1;P2;durP2;ratioP2
37239;SDS011;23130;48.760;9.178;2023-05-10T00:01:33;6.28;;;0.77;;
37239;SDS011;23130;48.760;9.178;2023-05-10T00:03:59;1.70;;;0.60;;
37239;SDS011;23130;48.760;9.178;2023-05-10T00:06:24;2.22;;;0.68;;
37239;SDS011;23130;48.760;9.178;2023-05-10T00:08:50;1.90;;;0.85;;
37239;SDS011;23130;48.760;9.178;2023-05-10T00:11:16;1.73;;;0.80;;
37239;SDS011;23130;48.760;9.178;2023-05-10T00:13:41;3.55;;;1.00;;
37239;SDS011;23130;48.760;9.178;2023-05-10T00:16:07;2.83;;;1.00;;
37239;SDS011;23130;48.760;9.178;2023-05-10T00:18:33;1.23;;;0.65;;
37239;SDS011;23130;48.760;9.178;2023-05-10T00:20:58;1.38;;;0.77;;
37239;SDS011;23130;48.760;9.178;2023-05-10T00:23:24;3.30;;;0.90;;
37239;SDS011;23130;48.760;9.178;2023-05-10T00:25:49;0.82;;;0.38;;
37239;SDS011;23130;48.760;9.178;2023-05-10T00:28:15;2.95;;;0.35;;
37239;SDS011;23130;48.760;9.178;2023-05-10T00:30:41;0.22;;;0.20;;
37239;SDS011;23130;48.760;9.178;2023-05-10T00:33:06;0.22;;;0.10;;
37239;SDS011;23130;48.760;9.178;2023-05-10T00:35:32;1.10;;;0.30;;
37239;SDS011;23130;48.760;9.178;2023-05-10T00:37:57;0.20;;;0.10;;
37239;SDS011;23130;48.760;9.178;2023-05-10T00:40:23;0.43;;;0.13;;
37239;SDS011;23130;48.760;9.178;2023-05-10T00:42:48;0.65;;;0.28;;
37239;SDS011;23130;48.760;9.178;2023-05-10T00:45:14;1.45;;;0.20;;
37239;SDS011;23130;48.760;9.178;2023-05-10T00:47:39;0.63;;;0.20;;
37239;SDS011;23130;48.760;9.178;2023-05-10T00:50:05;0.40;;;0.20;;
37239;SDS011;23130;48.760;9.178;2023-05-10T00:52:32;2.08;;;0.10;;
37239;SDS011;23130;48.760;9.178;2023-05-10T00:54:57;0.52;;;0.30;;
37239;SDS011;23130;48.760;9.178;2023-05-10T00:57:23;0.88;;;0.20;;
37239;SDS011;23130;48.760;9.178;2023-05-10T00:59:49;0.60;;;0.20;;
37239;SDS011;23130;48.760;9.178;2023-05-10T01:02:15;3.33;;;0.28;;
37239;SDS011;23130;48.760;9.178;2023-05-10T01:04:41;0.20;;;0.03;;
37239;SDS011;23130;48.760;9.178;2023-05-10T01:07:08;0.35;;;0.10;;
37239;SDS011;23130;48.760;9.178;2023-05-10T01:09:33;0.40;;;0.10;;
37239;SDS011;23130;48.760;9.178;2023-05-10T01:11:59;0.43;;;0.17;;
37239;SDS011;23130;48.760;9.178;2023-05-10T01:14:26;0.30;;;0.10;;
37239;SDS011;23130;48.760;9.178;2023-05-10T01:16:53;0.15;;;0.10;;
37239;SDS011;23130;48.760;9.178;2023-05-10T01:19:19;0.10;;;0.10;;
37239;SDS011;23130;48.760;9.178;2023-05-10T01:46:59;0.25;;;0.17;;
37239;SDS011;23130;48.760;9.178;2023-05-10T01:49:31;1.83;;;0.20;;
37239;SDS011;23130;48.760;9.178;2023-05-10T01:52:06;0.70;;;0.30;;
37239;SDS011;23130;48.760;9.178;2023-05-10T01:54:34;1.15;;;0.10;;
37239;SDS011;23130;48.760;9.178;2023-05-10T01:57:03;2.60;;;0.10;;
37239;SDS011;23130;48.760;9.178;2023-05-10T01:59:34;0.40;;;0.17;;
37239;SDS011;23130;48.760;9.178;2023-05-10T02:02:01;0.30;;;0.10;;
37239;SDS011;23130;48.760;9.178;2023-05-10T02:04:28;0.20;;;0.10;;
37239;SDS011;23130;48.760;9.178;2023-05-10T02:06:54;0.40;;;0.10;;
37239;SDS011;23130;48.760;9.178;2023-05-10T02:09:21;1.23;;;0.13;;
37239;SDS011;23130;48.760;9.178;2023-05-10T02:11:48;1.67;;;0.20;;
37239;SDS011;23130;48.760;9.178;2023-05-10T02:14:15;0.75;;;0.10;;
37239;SDS011;23130;48.760;9.178;2023-05-10T02:16:41;0.20;;;0.10;;
37239;SDS011;23130;48.760;9.178;2023-05-10T02:19:09;0.50;;;0.17;;
37239;SDS011;23130;48.760;9.178;2023-05-10T02:21:37;1.27;;;0.10;;
37239;SDS011;23130;48.760;9.178;2023-05-10T02:24:05;3.60;;;0.77;;
37239;SDS011;23130;48.760;9.178;2023-05-10T02:26:32;0.45;;;0.10;;
37239;SDS011;23130;48.760;9.178;2023-05-10T02:29:00;0.57;;;0.20;;
37239;SDS011;23130;48.760;9.178;2023-05-10T02:31:28;2.33;;;0.20;;
37239;SDS011;23130;48.760;9.178;2023-05-10T02:33:56;1.42;;;0.47;;
37239;SDS011;23130;48.760;9.178;2023-05-10T02:36:23;0.50;;;0.20;;
37239;SDS011;23130;48.760;9.178;2023-05-10T02:38:52;3.45;;;0.28;;
37239;SDS011;23130;48.760;9.178;2023-05-10T02:41:18;0.63;;;0.20;;
37239;SDS011;23130;48.760;9.178;2023-05-10T02:43:46;0.98;;;0.20;;
37239;SDS011;23130;48.760;9.178;2023-05-10T02:46:15;1.08;;;0.13;;
37239;SDS011;23130;48.760;9.178;2023-05-10T02:48:40;0.57;;;0.28;;
37239;SDS011;23130;48.760;9.178;2023-05-10T02:51:07;1.27;;;0.25;;
37239;SDS011;23130;48.760;9.178;2023-05-10T02:53:33;1.48;;;0.40;;
37239;SDS011;23130;48.760;9.178;2023-05-10T02:56:01;1.05;;;0.25;;
37239;SDS011;23130;48.760;9.178;2023-05-10T02:58:32;1.27;;;0.40;;
37239;SDS011;23130;48.760;9.178;2023-05-10T03:00:59;0.95;;;0.30;;
37239;SDS011;23130;48.760;9.178;2023-05-10T03:03:25;1.13;;;0.30;;
37239;SDS011;23130;48.760;9.178;2023-05-10T03:05:51;2.45;;;0.30;;
37239;SDS011;23130;48.760;9.178;2023-05-10T03:08:20;1.13;;;0.40;;
37239;SDS011;23130;48.760;9.178;2023-05-10T03:10:58;1.27;;;0.30;;
37239;SDS011;23130;48.760;9.178;2023-05-10T03:16:15;0.68;;;0.30;;
37239;SDS011;23130;48.760;9.178;2023-05-10T03:21:34;1.15;;;0.40;;
37239;SDS011;23130;48.760;9.178;2023-05-10T03:24:05;2.72;;;0.60;;
37239;SDS011;23130;48.760;9.178;2023-05-10T03:26:33;0.95;;;0.40;;
37239;SDS011;23130;48.760;9.178;2023-05-10T03:29:01;1.02;;;0.60;;
37239;SDS011;23130;48.760;9.178;2023-05-10T03:31:27;0.70;;;0.40;;
37239;SDS011;23130;48.760;9.178;2023-05-10T03:33:53;0.47;;;0.30;;
37239;SDS011;23130;48.760;9.178;2023-05-10T03:36:19;0.68;;;0.52;;
37239;SDS011;23130;48.760;9.178;2023-05-10T03:38:44;3.28;;;0.60;;
37239;SDS011;23130;48.760;9.178;2023-05-10T03:41:10;1.42;;;0.90;;
37239;SDS011;23130;48.760;9.178;2023-05-10T03:43:36;3.08;;;1.05;;
37239;SDS011;23130;48.760;9.178;2023-05-10T03:46:05;1.17;;;0.63;;
37239;SDS011;23130;48.760;9.178;2023-05-10T03:48:31;1.23;;;0.75;;
37239;SDS011;23130;48.760;9.178;2023-05-10T03:50:58;2.08;;;0.70;;
37239;SDS011;23130;48.760;9.178;2023-05-10T03:53:23;2.92;;;0.85;;
37239;SDS011;23130;48.760;9.178;2023-05-10T03:55:49;3.83;;;1.58;;
37239;SDS011;23130;48.760;9.178;2023-05-10T03:58:15;2.33;;;1.20;;
37239;SDS011;23130;48.760;9.178;2023-05-10T04:00:40;3.75;;;1.20;;
37239;SDS011;23130;48.760;9.178;2023-05-10T04:03:09;2.05;;;1.15;;
37239;SDS011;23130;48.760;9.178;2023-05-10T04:05:35;2.58;;;0.93;;
37239;SDS011;23130;48.760;9.178;2023-05-10T04:08:01;1.42;;;1.02;;
37239;SDS011;23130;48.760;9.178;2023-05-10T04:10:26;1.30;;;0.73;;
37239;SDS011;23130;48.760;9.178;2023-05-10T04:12:52;1.80;;;0.80;;
37239;SDS011;23130;48.760;9.178;2023-05-10T04:15:18;2.35;;;1.08;;
37239;SDS011;23130;48.760;9.178;2023-05-10T04:17:43;1.30;;;0.70;;
37239;SDS011;23130;48.760;9.178;2023-05-10T04:20:09;1.45;;;0.80;;
37239;SDS011;23130;48.760;9.178;2023-05-10T04:22:35;1.40;;;0.60;;
37239;SDS011;23130;48.760;9.178;2023-05-10T04:25:01;2.28;;;0.82;;
37239;SDS011;23130;48.760;9.178;2023-05-10T04:27:26;1.67;;;0.80;;
37239;SDS011;23130;48.760;9.178;2023-05-10T04:29:52;1.15;;;0.90;;
37239;SDS011;23130;48.760;9.178;2023-05-10T04:32:19;1.80;;;0.98;;
37239;SDS011;23130;48.760;9.178;2023-05-10T04:34:45;2.40;;;0.85;;
37239;SDS011;23130;48.760;9.178;2023-05-10T04:37:11;1.60;;;0.98;;
37239;SDS011;23130;48.760;9.178;2023-05-10T04:39:37;3.20;;;0.75;;
37239;SDS011;23130;48.760;9.178;2023-05-10T04:42:03;1.48;;;0.70;;
37239;SDS011;23130;48.760;9.178;2023-05-10T04:44:30;1.73;;;0.88;;
37239;SDS011;23130;48.760;9.178;2023-05-10T04:46:56;1.23;;;0.63;;
37239;SDS011;23130;48.760;9.178;2023-05-10T04:49:22;1.05;;;0.55;;
37239;SDS011;23130;48.760;9.178;2023-05-10T04:51:47;1.60;;;0.80;;
37239;SDS011;23130;48.760;9.178;2023-05-10T04:54:13;5.80;;;0.77;;
37239;SDS011;23130;48.760;9.178;2023-05-10T04:56:38;1.00;;;0.65;;
37239;SDS011;23130;48.760;9.178;2023-05-10T04:59:04;2.03;;;0.60;;
37239;SDS011;23130;48.760;9.178;2023-05-10T05:01:30;2.35;;;0.60;;
37239;SDS011;23130;48.760;9.178;2023-05-10T05:03:55;1.10;;;0.57;;
37239;SDS011;23130;48.760;9.178;2023-05-10T05:06:21;2.17;;;0.70;;
37239;SDS011;23130;48.760;9.178;2023-05-10T05:08:46;1.48;;;0.57;;
37239;SDS011;23130;48.760;9.178;2023-05-10T05:11:14;1.98;;;0.63;;
37239;SDS011;23130;48.760;9.178;2023-05-10T05:13:39;1.00;;;0.65;;
37239;SDS011;23130;48.760;9.178;2023-05-10T05:16:05;1.67;;;0.63;;
37239;SDS011;23130;48.760;9.178;2023-05-10T05:18:31;1.38;;;0.75;;
37239;SDS011;23130;48.760;9.178;2023-05-10T05:20:56;2.97;;;0.65;;
37239;SDS011;23130;48.760;9.178;2023-05-10T05:23:22;1.80;;;0.50;;
37239;SDS011;23130;48.760;9.178;2023-05-10T05:25:50;1.23;;;0.50;;
37239;SDS011;23130;48.760;9.178;2023-05-10T05:28:17;2.00;;;0.60;;
37239;SDS011;23130;48.760;9.178;2023-05-10T05:30:43;0.88;;;0.68;;
37239;SDS011;23130;48.760;9.178;2023-05-10T05:33:08;2.72;;;0.60;;
37239;SDS011;23130;48.760;9.178;2023-05-10T05:35:34;2.42;;;0.60;;
37239;SDS011;23130;48.760;9.178;2023-05-10T05:37:59;3.15;;;0.70;;
37239;SDS011;23130;48.760;9.178;2023-05-10T05:40:25;2.55;;;0.60;;
37239;SDS011;23130;48.760;9.178;2023-05-10T05:42:50;2.60;;;0.60;;
37239;SDS011;23130;48.760;9.178;2023-05-10T05:45:16;1.67;;;0.50;;
37239;SDS011;23130;48.760;9.178;2023-05-10T05:47:41;2.28;;;0.65;;
37239;SDS011;23130;48.760;9.178;2023-05-10T05:50:07;2.17;;;0.90;;
37239;SDS011;23130;48.760;9.178;2023-05-10T05:52:33;3.42;;;1.33;;
37239;SDS011;23130;48.760;9.178;2023-05-10T05:54:59;2.78;;;1.35;;
37239;SDS011;23130;48.760;9.178;2023-05-10T05:57:25;1.10;;;0.70;;
37239;SDS011;23130;48.760;9.178;2023-05-10T05:59:51;1.40;;;0.75;;
37239;SDS011;23130;48.760;9.178;2023-05-10T06:02:17;4.95;;;0.93;;
37239;SDS011;23130;48.760;9.178;2023-05-10T06:04:42;1.88;;;0.77;;
37239;SDS011;23130;48.760;9.178;2023-05-10T06:07:08;3.67;;;1.33;;
37239;SDS011;23130;48.760;9.178;2023-05-10T06:09:33;1.08;;;0.68;;
37239;SDS011;23130;48.760;9.178;2023-05-10T06:11:59;2.90;;;0.90;;
37239;SDS011;23130;48.760;9.178;2023-05-10T06:14:25;3.28;;;1.25;;
37239;SDS011;23130;48.760;9.178;2023-05-10T06:16:50;3.00;;;0.80;;
37239;SDS011;23130;48.760;9.178;2023-05-10T06:19:16;1.45;;;0.65;;
37239;SDS011;23130;48.760;9.178;2023-05-10T06:21:41;1.50;;;0.80;;
37239;SDS011;23130;48.760;9.178;2023-05-10T06:24:07;3.92;;;0.70;;
37239;SDS011;23130;48.760;9.178;2023-05-10T06:26:33;2.88;;;1.05;;
37239;SDS011;23130;48.760;9.178;2023-05-10T06:28:58;2.42;;;0.88;;
37239;SDS011;23130;48.760;9.178;2023-05-10T06:31:24;3.80;;;0.82;;
37239;SDS011;23130;48.760;9.178;2023-05-10T06:33:50;1.77;;;0.65;;
37239;SDS011;23130;48.760;9.178;2023-05-10T06:36:16;4.55;;;0.63;;
37239;SDS011;23130;48.760;9.178;2023-05-10T06:38:41;1.95;;;0.70;;
37239;SDS011;23130;48.760;9.178;2023-05-10T06:41:07;2.80;;;0.90;;
37239;SDS011;23130;48.760;9.178;2023-05-10T06:43:33;3.85;;;0.77;;
37239;SDS011;23130;48.760;9.178;2023-05-10T06:45:58;1.15;;;0.73;;
37239;SDS011;23130;48.760;9.178;2023-05-10T06:48:24;1.83;;;0.95;;
37239;SDS011;23130;48.760;9.178;2023-05-10T06:50:49;2.10;;;1.00;;
37239;SDS011;23130;48.760;9.178;2023-05-10T06:53:15;2.33;;;1.00;;
37239;SDS011;23130;48.760;9.178;2023-05-10T06:55:41;2.72;;;0.95;;
37239;SDS011;23130;48.760;9.178;2023-05-10T06:58:06;3.58;;;1.08;;
37239;SDS011;23130;48.760;9.178;2023-05-10T07:00:32;2.22;;;1.00;;
37239;SDS011;23130;48.760;9.178;2023-05-10T07:02:57;2.63;;;0.95;;
37239;SDS011;23130;48.760;9.178;2023-05-10T07:05:23;2.15;;;0.90;;
37239;SDS011;23130;48.760;9.178;2023-05-10T07:07:49;3.33;;;1.02;;
37239;SDS011;23130;48.760;9.178;2023-05-10T07:10:14;4.15;;;1.30;;
37239;SDS011;23130;48.760;9.178;2023-05-10T07:12:40;1.60;;;1.08;;
37239;SDS011;23130;48.760;9.178;2023-05-10T07:15:06;2.05;;;0.60;;
37239;SDS011;23130;48.760;9.178;2023-05-10T07:17:32;1.17;;;0.60;;
37239;SDS011;23130;48.760;9.178;2023-05-10T07:19:58;2.92;;;1.30;;
37239;SDS011;23130;48.760;9.178;2023-05-10T07:22:25;1.88;;;0.60;;
37239;SDS011;23130;48.760;9.178;2023-05-10T07:24:50;1.38;;;0.85;;
37239;SDS011;23130;48.760;9.178;2023-05-10T07:27:16;2.22;;;0.90;;
37239;SDS011;23130;48.760;9.178;2023-05-10T07:29:42;2.22;;;0.85;;
37239;SDS011;23130;48.760;9.178;2023-05-10T07:32:07;1.60;;;0.50;;
37239;SDS011;23130;48.760;9.178;2023-05-10T07:34:33;1.17;;;0.60;;
37239;SDS011;23130;48.760;9.178;2023-05-10T07:36:58;4.13;;;0.70;;
37239;SDS011;23130;48.760;9.178;2023-05-10T07:39:24;1.42;;;0.80;;
37239;SDS011;23130;48.760;9.178;2023-05-10T07:41:50;2.42;;;0.63;;
37239;SDS011;23130;48.760;9.178;2023-05-10T07:44:16;1.55;;;0.63;;
37239;SDS011;23130;48.760;9.178;2023-05-10T07:46:44;1.45;;;0.68;;
37239;SDS011;23130;48.760;9.178;2023-05-10T07:49:09;2.05;;;0.50;;
37239;SDS011;23130;48.760;9.178;2023-05-10T07:51:35;0.95;;;0.55;;
37239;SDS011;23130;48.760;9.178;2023-05-10T07:54:00;1.45;;;0.60;;
37239;SDS011;23130;48.760;9.178;2023-05-10T07:56:28;1.92;;;0.40;;
37239;SDS011;23130;48.760;9.178;2023-05-10T07:58:58;0.73;;;0.32;;
37239;SDS011;23130;48.760;9.178;2023-05-10T08:01:24;1.30;;;0.32;;
37239;SDS011;23130;48.760;9.178;2023-05-10T08:03:51;1.25;;;0.50;;
37239;SDS011;23130;48.760;9.178;2023-05-10T08:06:18;1.50;;;0.70;;
37239;SDS011;23130;48.760;9.178;2023-05-10T08:08:45;2.00;;;0.50;;
37239;SDS011;23130;48.760;9.178;2023-05-10T08:11:14;1.92;;;0.63;;
37239;SDS011;23130;48.760;9.178;2023-05-10T08:13:43;2.83;;;0.95;;
37239;SDS011;23130;48.760;9.178;2023-05-10T08:16:12;1.33;;;0.35;;
37239;SDS011;23130;48.760;9.178;2023-05-10T08:18:38;2.55;;;0.20;;
37239;SDS011;23130;48.760;9.178;2023-05-10T08:21:04;2.15;;;0.40;;
37239;SDS011;23130;48.760;9.178;2023-05-10T08:23:30;1.58;;;0.55;;
37239;SDS011;23130;48.760;9.178;2023-05-10T08:25:55;4.10;;;0.50;;
37239;SDS011;23130;48.760;9.178;2023-05-10T08:28:21;0.50;;;0.30;;
37239;SDS011;23130;48.760;9.178;2023-05-10T08:30:47;0.77;;;0.30;;
37239;SDS011;23130;48.760;9.178;2023-05-10T08:33:12;0.60;;;0.40;;
37239;SDS011;23130;48.760;9.178;2023-05-10T08:35:38;0.30;;;0.20;;
37239;SDS011;23130;48.760;9.178;2023-05-10T08:38:03;0.80;;;0.25;;
37239;SDS011;23130;48.760;9.178;2023-05-10T08:40:29;0.95;;;0.30;;
37239;SDS011;23130;48.760;9.178;2023-05-10T08:43:05;0.90;;;0.22;;
37239;SDS011;23130;48.760;9.178;2023-05-10T08:45:32;2.08;;;0.30;;
37239;SDS011;23130;48.760;9.178;2023-05-10T08:48:02;1.65;;;0.20;;
37239;SDS011;23130;48.760;9.178;2023-05-10T08:50:31;1.15;;;0.30;;
37239;SDS011;23130;48.760;9.178;2023-05-10T08:52:57;1.50;;;0.20;;
37239;SDS011;23130;48.760;9.178;2023-05-10T08:55:26;0.88;;;0.20;;
37239;SDS011;23130;48.760;9.178;2023-05-10T08:57:52;3.72;;;0.60;;
37239;SDS011;23130;48.760;9.178;2023-05-10T09:00:18;0.75;;;0.22;;
37239;SDS011;23130;48.760;9.178;2023-05-10T09:02:44;1.83;;;0.22;;
37239;SDS011;23130;48.760;9.178;2023-05-10T09:05:13;1.77;;;0.20;;
37239;SDS011;23130;48.760;9.178;2023-05-10T09:07:40;0.82;;;0.30;;
37239;SDS011;23130;48.760;9.178;2023-05-10T09:10:06;3.55;;;0.30;;
37239;SDS011;23130;48.760;9.178;2023-05-10T09:12:33;1.42;;;0.20;;
37239;SDS011;23130;48.760;9.178;2023-05-10T09:15:01;0.70;;;0.20;;
37239;SDS011;23130;48.760;9.178;2023-05-10T09:17:28;0.30;;;0.13;;
37239;SDS011;23130;48.760;9.178;2023-05-10T09:20:01;0.90;;;0.20;;
37239;SDS011;23130;48.760;9.178;2023-05-10T09:22:28;4.05;;;0.13;;
37239;SDS011;23130;48.760;9.178;2023-05-10T09:25:11;1.83;;;0.17;;
37239;SDS011;23130;48.760;9.178;2023-05-10T09:27:38;0.95;;;0.20;;
37239;SDS011;23130;48.760;9.178;2023-05-10T09:30:05;1.38;;;0.20;;
37239;SDS011;23130;48.760;9.178;2023-05-10T09:32:42;0.50;;;0.20;;
37239;SDS011;23130;48.760;9.178;2023-05-10T09:35:51;1.05;;;0.25;;
37239;SDS011;23130;48.760;9.178;2023-05-10T09:38:04;1.40;;;0.28;;
37239;SDS011;23130;48.760;9.178;2023-05-10T09:40:30;1.52;;;0.30;;
37239;SDS011;23130;48.760;9.178;2023-05-10T09:45:27;0.73;;;0.15;;
37239;SDS011;23130;48.760;9.178;2023-05-10T09:47:54;0.80;;;0.22;;
37239;SDS011;23130;48.760;9.178;2023-05-10T09:50:20;1.42;;;0.52;;
37239;SDS011;23130;48.760;9.178;2023-05-10T09:53:20;2.25;;;0.30;;
37239;SDS011;23130;48.760;9.178;2023-05-10T09:55:40;1.42;;;0.20;;
37239;SDS011;23130;48.760;9.178;2023-05-10T09:58:09;3.92;;;0.20;;
37239;SDS011;23130;48.760;9.178;2023-05-10T10:00:45;0.70;;;0.20;;
37239;SDS011;23130;48.760;9.178;2023-05-10T10:03:19;0.47;;;0.20;;
37239;SDS011;23130;48.760;9.178;2023-05-10T10:05:46;1.00;;;0.10;;
37239;SDS011;23130;48.760;9.178;2023-05-10T10:08:12;0.52;;;0.13;;
37239;SDS011;23130;48.760;9.178;2023-05-10T10:10:39;1.10;;;0.25;;
37239;SDS011;23130;48.760;9.178;2023-05-10T10:13:05;1.45;;;0.20;;
37239;SDS011;23130;48.760;9.178;2023-05-10T10:15:32;1.65;;;0.10;;
37239;SDS011;23130;48.760;9.178;2023-05-10T10:17:59;0.85;;;0.20;;
37239;SDS011;23130;48.760;9.178;2023-05-10T10:20:25;1.05;;;0.20;;
37239;SDS011;23130;48.760;9.178;2023-05-10T10:22:52;1.40;;;0.10;;
37239;SDS011;23130;48.760;9.178;2023-05-10T10:25:18;0.60;;;0.20;;
37239;SDS011;23130;48.760;9.178;2023-05-10T10:30:21;1.77;;;0.30;;
37239;SDS011;23130;48.760;9.178;2023-05-10T10:33:01;0.52;;;0.20;;
37239;SDS011;23130;48.760;9.178;2023-05-10T10:35:50;0.95;;;0.25;;
37239;SDS011;23130;48.760;9.178;2023-05-10T10:38:18;0.98;;;0.17;;
37239;SDS011;23130;48.760;9.178;2023-05-10T10:40:43;0.47;;;0.30;;
37239;SDS011;23130;48.760;9.178;2023-05-10T10:43:22;1.58;;;0.20;;
37239;SDS011;23130;48.760;9.178;2023-05-10T10:48:40;1.75;;;0.20;;
37239;SDS011;23130;48.760;9.178;2023-05-10T10:51:07;0.93;;;0.20;;
37239;SDS011;23130;48.760;9.178;2023-05-10T10:53:32;0.85;;;0.45;;
37239;SDS011;23130;48.760;9.178;2023-05-10T10:56:05;0.73;;;0.20;;
37239;SDS011;23130;48.760;9.178;2023-05-10T10:58:39;0.65;;;0.20;;
37239;SDS011;23130;48.760;9.178;2023-05-10T11:01:12;1.00;;;0.20;;
37239;SDS011;23130;48.760;9.178;2023-05-10T11:03:40;1.70;;;0.30;;
37239;SDS011;23130;48.760;9.178;2023-05-10T11:06:06;2.80;;;0.32;;
37239;SDS011;23130;48.760;9.178;2023-05-10T11:08:33;1.25;;;0.10;;
37239;SDS011;23130;48.760;9.178;2023-05-10T11:11:07;0.40;;;0.10;;
37239;SDS011;23130;48.760;9.178;2023-05-10T11:13:34;2.42;;;0.17;;
37239;SDS011;23130;48.760;9.178;2023-05-10T11:19:05;1.20;;;0.20;;
37239;SDS011;23130;48.760;9.178;2023-05-10T11:21:34;0.28;;;0.20;;
37239;SDS011;23130;48.760;9.178;2023-05-10T11:24:13;0.88;;;0.25;;
37239;SDS011;23130;48.760;9.178;2023-05-10T11:26:40;1.67;;;0.20;;
37239;SDS011;23130;48.760;9.178;2023-05-10T11:29:06;1.58;;;0.10;;
37239;SDS011;23130;48.760;9.178;2023-05-10T11:31:32;1.65;;;0.40;;
37239;SDS011;23130;48.760;9.178;2023-05-10T11:33:58;1.95;;;0.47;;
37239;SDS011;23130;48.760;9.178;2023-05-10T11:36:27;2.00;;;0.45;;
37239;SDS011;23130;48.760;9.178;2023-05-10T11:38:54;1.25;;;0.43;;
37239;SDS011;23130;48.760;9.178;2023-05-10T11:41:21;0.82;;;0.22;;
37239;SDS011;23130;48.760;9.178;2023-05-10T11:43:49;1.25;;;0.10;;
37239;SDS011;23130;48.760;9.178;2023-05-10T11:46:17;1.45;;;0.20;;
37239;SDS011;23130;48.760;9.178;2023-05-10T11:48:45;1.27;;;0.30;;
37239;SDS011;23130;48.760;9.178;2023-05-10T11:51:14;1.02;;;0.30;;
37239;SDS011;23130;48.760;9.178;2023-05-10T11:53:39;2.45;;;0.35;;
37239;SDS011;23130;48.760;9.178;2023-05-10T11:56:05;0.90;;;0.10;;
37239;SDS011;23130;48.760;9.178;2023-05-10T11:58:32;0.43;;;0.28;;
37239;SDS011;23130;48.760;9.178;2023-05-10T12:01:00;1.17;;;0.20;;
37239;SDS011;23130;48.760;9.178;2023-05-10T12:03:27;1.13;;;0.30;;
37239;SDS011;23130;48.760;9.178;2023-05-10T12:05:54;0.43;;;0.28;;
37239;SDS011;23130;48.760;9.178;2023-05-10T12:08:24;1.02;;;0.25;;
37239;SDS011;23130;48.760;9.178;2023-05-10T12:10:52;2.25;;;0.40;;
37239;SDS011;23130;48.760;9.178;2023-05-10T12:13:19;0.57;;;0.30;;
37239;SDS011;23130;48.760;9.178;2023-05-10T12:15:45;1.65;;;0.32;;
37239;SDS011;23130;48.760;9.178;2023-05-10T12:18:12;0.70;;;0.20;;
37239;SDS011;23130;48.760;9.178;2023-05-10T12:20:39;1.73;;;0.45;;
37239;SDS011;23130;48.760;9.178;2023-05-10T12:23:05;4.18;;;0.40;;
37239;SDS011;23130;48.760;9.178;2023-05-10T12:25:33;1.80;;;0.40;;
37239;SDS011;23130;48.760;9.178;2023-05-10T12:28:00;3.22;;;0.80;;
37239;SDS011;23130;48.760;9.178;2023-05-10T12:30:30;1.20;;;0.50;;
37239;SDS011;23130;48.760;9.178;2023-05-10T12:33:10;0.52;;;0.30;;
37239;SDS011;23130;48.760;9.178;2023-05-10T12:35:50;2.38;;;0.47;;
37239;SDS011;23130;48.760;9.178;2023-05-10T12:38:37;1.67;;;0.40;;
37239;SDS011;23130;48.760;9.178;2023-05-10T12:41:07;1.35;;;0.30;;
37239;SDS011;23130;48.760;9.178;2023-05-10T12:43:41;1.98;;;0.40;;
37239;SDS011;23130;48.760;9.178;2023-05-10T12:46:10;1.55;;;0.45;;
37239;SDS011;23130;48.760;9.178;2023-05-10T12:48:38;2.63;;;0.50;;
37239;SDS011;23130;48.760;9.178;2023-05-10T12:51:04;3.45;;;0.43;;
37239;SDS011;23130;48.760;9.178;2023-05-10T12:53:33;1.08;;;0.50;;
37239;SDS011;23130;48.760;9.178;2023-05-10T12:55:59;1.63;;;0.50;;
37239;SDS011;23130;48.760;9.178;2023-05-10T12:58:24;1.00;;;0.40;;
37239;SDS011;23130;48.760;9.178;2023-05-10T13:00:50;4.18;;;0.60;;
37239;SDS011;23130;48.760;9.178;2023-05-10T13:03:16;3.67;;;0.60;;
37239;SDS011;23130;48.760;9.178;2023-05-10T13:05:42;2.03;;;0.30;;
37239;SDS011;23130;48.760;9.178;2023-05-10T13:08:08;3.10;;;0.43;;
37239;SDS011;23130;48.760;9.178;2023-05-10T13:10:33;7.28;;;0.82;;
37239;SDS011;23130;48.760;9.178;2023-05-10T13:12:59;1.45;;;0.30;;
37239;SDS011;23130;48.760;9.178;2023-05-10T13:15:25;1.52;;;0.40;;
37239;SDS011;23130;48.760;9.178;2023-05-10T13:17:51;1.08;;;0.40;;
37239;SDS011;23130;48.760;9.178;2023-05-10T13:20:17;0.80;;;0.30;;
37239;SDS011;23130;48.760;9.178;2023-05-10T13:22:43;1.83;;;0.30;;
37239;SDS011;23130;48.760;9.178;2023-05-10T13:25:09;2.75;;;0.43;;
37239;SDS011;23130;48.760;9.178;2023-05-10T13:27:35;2.75;;;0.45;;
37239;SDS011;23130;48.760;9.178;2023-05-10T13:30:02;2.65;;;0.50;;
37239;SDS011;23130;48.760;9.178;2023-05-10T13:32:28;1.65;;;0.40;;
37239;SDS011;23130;48.760;9.178;2023-05-10T13:34:54;2.55;;;0.50;;
37239;SDS011;23130;48.760;9.178;2023-05-10T13:37:20;1.92;;;0.30;;
37239;SDS011;23130;48.760;9.178;2023-05-10T13:39:46;3.15;;;0.40;;
37239;SDS011;23130;48.760;9.178;2023-05-10T13:42:12;0.82;;;0.30;;
37239;SDS011;23130;48.760;9.178;2023-05-10T13:44:37;1.95;;;0.63;;
37239;SDS011;23130;48.760;9.178;2023-05-10T13:47:03;2.13;;;0.57;;
37239;SDS011;23130;48.760;9.178;2023-05-10T13:49:29;1.00;;;0.38;;
37239;SDS011;23130;48.760;9.178;2023-05-10T13:51:55;2.05;;;0.40;;
37239;SDS011;23130;48.760;9.178;2023-05-10T13:54:20;2.15;;;0.45;;
37239;SDS011;23130;48.760;9.178;2023-05-10T13:56:47;2.90;;;0.50;;
37239;SDS011;23130;48.760;9.178;2023-05-10T13:59:13;1.85;;;0.57;;
37239;SDS011;23130;48.760;9.178;2023-05-10T14:01:39;1.00;;;0.30;;
37239;SDS011;23130;48.760;9.178;2023-05-10T14:04:06;1.77;;;0.55;;
37239;SDS011;23130;48.760;9.178;2023-05-10T14:06:34;2.00;;;0.30;;
37239;SDS011;23130;48.760;9.178;2023-05-10T14:09:03;2.65;;;0.50;;
37239;SDS011;23130;48.760;9.178;2023-05-10T14:11:29;0.90;;;0.30;;
37239;SDS011;23130;48.760;9.178;2023-05-10T14:13:54;0.93;;;0.32;;
37239;SDS011;23130;48.760;9.178;2023-05-10T14:16:20;3.50;;;0.63;;
37239;SDS011;23130;48.760;9.178;2023-05-10T14:18:46;2.40;;;0.40;;
37239;SDS011;23130;48.760;9.178;2023-05-10T14:21:12;1.60;;;0.40;;
37239;SDS011;23130;48.760;9.178;2023-05-10T14:23:38;4.13;;;0.45;;
37239;SDS011;23130;48.760;9.178;2023-05-10T14:26:03;2.38;;;0.82;;
37239;SDS011;23130;48.760;9.178;2023-05-10T14:28:29;1.10;;;0.30;;
37239;SDS011;23130;48.760;9.178;2023-05-10T14:30:54;2.90;;;0.47;;
37239;SDS011;23130;48.760;9.178;2023-05-10T14:33:20;0.77;;;0.30;;
37239;SDS011;23130;48.760;9.178;2023-05-10T14:35:46;6.25;;;0.45;;
37239;SDS011;23130;48.760;9.178;2023-05-10T14:38:12;1.38;;;0.30;;
37239;SDS011;23130;48.760;9.178;2023-05-10T14:40:38;1.65;;;0.30;;
37239;SDS011;23130;48.760;9.178;2023-05-10T14:43:04;1.33;;;0.30;;
37239;SDS011;23130;48.760;9.178;2023-05-10T14:45:30;1.35;;;0.52;;
37239;SDS011;23130;48.760;9.178;2023-05-10T14:47:56;2.65;;;0.52;;
37239;SDS011;23130;48.760;9.178;2023-05-10T14:50:22;1.63;;;0.30;;
37239;SDS011;23130;48.760;9.178;2023-05-10T14:52:48;2.40;;;0.28;;
37239;SDS011;23130;48.760;9.178;2023-05-10T14:55:14;1.75;;;0.40;;
37239;SDS011;23130;48.760;9.178;2023-05-10T14:57:40;1.70;;;0.50;;
37239;SDS011;23130;48.760;9.178;2023-05-10T15:00:07;2.65;;;0.38;;
37239;SDS011;23130;48.760;9.178;2023-05-10T15:02:33;2.72;;;0.50;;
37239;SDS011;23130;48.760;9.178;2023-05-10T15:04:58;3.72;;;0.57;;
37239;SDS011;23130;48.760;9.178;2023-05-10T15:07:24;2.60;;;0.77;;
37239;SDS011;23130;48.760;9.178;2023-05-10T15:09:50;0.50;;;0.20;;
37239;SDS011;23130;48.760;9.178;2023-05-10T15:12:16;0.68;;;0.32;;
37239;SDS011;23130;48.760;9.178;2023-05-10T15:14:42;0.73;;;0.28;;
37239;SDS011;23130;48.760;9.178;2023-05-10T15:17:08;0.98;;;0.30;;
37239;SDS011;23130;48.760;9.178;2023-05-10T15:19:34;2.38;;;0.40;;
37239;SDS011;23130;48.760;9.178;2023-05-10T15:21:59;1.55;;;0.40;;
37239;SDS011;23130;48.760;9.178;2023-05-10T15:24:25;6.28;;;0.88;;
37239;SDS011;23130;48.760;9.178;2023-05-10T15:26:50;0.90;;;0.30;;
37239;SDS011;23130;48.760;9.178;2023-05-10T15:29:16;1.08;;;0.47;;